.
WxDataArchive / Data Records for 2013-02-28
2013-02-27 February 2013 2013-03-01

Data Records for Thursday, 28 February 2013

Time	Temp	Chill	HIndex	Humid	Dewpt	 Wind 	HiWind	WindDir	Rain 	Barom 
-----	----	-----	------	-----	-----	------	------	-------	-----	----- 
00:00	31.2	31.2	31.2	93	29.4	1	4	248	0.00	29.611 
00:05	31.2	31.2	31.2	93	29.4	1	4	248	0.00	29.611 
00:10	31.2	31.2	31.2	93	29.4	1	4	248	0.00	29.611 
00:15	31.2	31.2	31.2	93	29.4	1	2	225	0.00	29.610 
00:20	31.2	31.2	31.2	93	29.4	1	3	248	0.00	29.610 
00:25	31.2	31.2	31.2	93	29.4	1	4	248	0.00	29.610 
00:30	31.2	31.2	31.2	93	29.4	1	5	248	0.00	29.607 
00:35	31.3	31.3	31.3	93	29.5	2	4	248	0.00	29.607 
00:40	31.3	31.3	31.3	93	29.5	1	5	248	0.00	29.607 
00:45	31.3	31.3	31.3	93	29.5	2	5	248	0.00	29.610 
00:50	31.3	31.3	31.3	93	29.5	1	4	248	0.00	29.610 
00:55	31.3	31.3	31.3	93	29.5	1	3	248	0.00	29.610 
01:00	31.5	31.5	31.5	93	29.7	1	4	248	0.00	29.609 
01:05	31.5	31.5	31.5	93	29.7	1	3	248	0.00	29.609 
01:10	31.5	31.5	31.5	93	29.7	1	3	248	0.00	29.609 
01:15	31.5	31.5	31.5	93	29.7	1	3	248	0.00	29.608 
01:20	31.5	31.5	31.5	93	29.7	1	5	248	0.00	29.608 
01:25	31.5	31.5	31.5	93	29.7	1	3	248	0.00	29.608 
01:30	31.5	31.5	31.5	93	29.7	1	5	248	0.00	29.606 
01:35	31.6	31.6	31.6	93	29.8	1	3	248	0.00	29.606 
01:40	31.6	31.6	31.6	93	29.8	1	3	248	0.00	29.606 
01:45	31.6	31.6	31.6	93	29.8	1	4	248	0.00	29.608 
01:50	31.6	31.6	31.6	93	29.8	0	2	248	0.00	29.608 
01:55	31.6	31.6	31.6	93	29.8	1	3	248	0.00	29.608 
02:00	31.8	31.8	31.8	93	30.0	1	4	248	0.00	29.610 
02:05	31.8	31.8	31.8	93	30.0	1	3	248	0.00	29.610 
02:10	31.8	31.8	31.8	93	30.0	1	4	270	0.00	29.610 
02:15	31.8	31.8	31.8	93	30.0	1	3	270	0.00	29.609 
02:20	31.8	31.8	31.8	93	30.0	0	2	248	0.00	29.609 
02:25	31.8	31.8	31.8	93	30.0	0	2	248	0.00	29.609 
02:30	31.8	31.8	31.8	93	30.0	0	2	248	0.00	29.608 
02:35	31.9	31.9	31.9	94	30.4	0	2	248	0.00	29.608 
02:40	31.9	31.9	31.9	94	30.4	0	1	248	0.00	29.608 
02:45	31.9	31.9	31.9	94	30.4	0	2	248	0.00	29.608 
02:50	31.9	31.9	31.9	94	30.4	0	2	248	0.00	29.608 
02:55	31.9	31.9	31.9	94	30.4	0	2	248	0.00	29.608 
03:00	31.9	31.9	31.9	94	30.4	0	1	248	0.00	29.608 
03:05	32.1	32.1	32.1	94	30.6	0	1	248	0.00	29.608 
03:10	32.1	32.1	32.1	94	30.6	0	1	248	0.00	29.608 
03:15	32.1	32.1	32.1	94	30.6	0	2	248	0.00	29.606 
03:20	32.1	32.1	32.1	94	30.6	0	1	248	0.00	29.606 
03:25	32.2	32.2	32.2	94	30.7	0	1	248	0.01	29.606 
03:30	32.2	32.2	32.2	94	30.7	0	1	248	0.00	29.606 
03:35	32.2	32.2	32.2	94	30.7	0	3	248	0.00	29.606 
03:40	32.2	32.2	32.2	94	30.7	0	2	248	0.00	29.606 
03:45	32.4	32.4	32.4	94	30.9	0	2	248	0.00	29.610 
03:50	32.4	32.4	32.4	94	30.9	0	2	248	0.00	29.610 
03:55	32.4	32.4	32.4	94	30.9	0	1	248	0.00	29.610 
04:00	32.4	32.4	32.4	94	30.9	0	3	248	0.00	29.613 
04:05	32.5	32.5	32.5	94	31.0	0	1	248	0.00	29.613 
04:10	32.5	32.5	32.5	94	31.0	0	2	248	0.00	29.613 
04:15	32.5	32.5	32.5	94	31.0	0	2	248	0.00	29.620 
04:20	32.5	32.5	32.5	94	31.0	0	2	248	0.00	29.620 
04:25	32.7	32.7	32.7	94	31.2	0	1	248	0.00	29.620 
04:30	32.7	32.7	32.7	94	31.2	0	1	248	0.00	29.622 
04:35	32.7	32.7	32.7	94	31.2	0	3	270	0.00	29.622 
04:40	32.7	32.7	32.7	94	31.2	1	2	270	0.00	29.622 
04:45	32.8	32.8	32.8	94	31.3	0	2	270	0.00	29.626 
04:50	32.8	32.8	32.8	94	31.3	0	1	270	0.00	29.626 
04:55	32.8	32.8	32.8	94	31.3	1	3	248	0.00	29.626 
05:00	32.8	32.8	32.8	94	31.3	0	2	248	0.00	29.631 
05:05	32.8	32.8	32.8	94	31.3	0	1	248	0.00	29.631 
05:10	32.8	32.8	32.8	94	31.3	0	2	292	0.00	29.631 
05:15	32.8	32.8	32.8	94	31.3	0	2	292	0.00	29.636 
05:20	32.9	32.9	32.9	94	31.4	0	2	292	0.00	29.636 
05:25	32.9	32.9	32.9	94	31.4	0	3	292	0.00	29.636 
05:30	32.9	32.9	32.9	94	31.4	1	3	270	0.00	29.640 
05:35	32.9	32.9	32.9	94	31.4	0	2	292	0.00	29.640 
05:40	32.9	32.9	32.9	94	31.4	1	3	292	0.00	29.640 
05:45	32.9	32.9	32.9	94	31.4	0	2	315	0.00	29.642 
05:50	32.9	32.9	32.9	94	31.4	0	2	315	0.00	29.642 
05:55	32.9	32.9	32.9	94	31.4	0	2	315	0.00	29.642 
06:00	32.9	32.9	32.9	94	31.4	0	3	338	0.00	29.651 
06:05	32.9	32.9	32.9	94	31.4	1	2	248	0.00	29.651 
06:10	32.9	32.9	32.9	94	31.4	1	3	248	0.00	29.651 
06:15	32.9	32.9	32.9	94	31.4	1	3	248	0.00	29.655 
06:20	32.9	32.9	32.9	94	31.4	0	0	---	0.00	29.655 
06:25	32.9	32.9	32.9	94	31.4	0	2	248	0.00	29.655 
06:30	32.9	32.9	32.9	94	31.4	1	3	270	0.00	29.659 
06:35	32.9	32.9	32.9	94	31.4	0	2	248	0.00	29.659 
06:40	32.9	32.9	32.9	94	31.4	1	6	248	0.00	29.659 
06:45	33.1	33.1	33.1	94	31.6	1	3	315	0.00	29.662 
06:50	33.1	33.1	33.1	94	31.6	1	3	315	0.00	29.662 
06:55	33.1	33.1	33.1	94	31.6	0	2	315	0.00	29.662 
07:00	33.1	33.1	33.1	94	31.6	1	4	292	0.00	29.671 
07:05	33.1	33.1	33.1	94	31.6	0	3	292	0.00	29.671 
07:10	33.1	33.1	33.1	94	31.6	1	3	292	0.00	29.671 
07:15	33.1	33.1	33.1	94	31.6	1	4	270	0.00	29.680 
07:20	33.1	33.1	33.1	94	31.6	0	1	270	0.00	29.680 
07:25	33.1	33.1	33.1	94	31.6	1	6	292	0.00	29.680 
07:30	33.1	33.1	33.1	94	31.6	1	3	315	0.00	29.689 
07:35	33.1	33.1	33.1	94	31.6	1	4	270	0.00	29.689 
07:40	33.1	33.1	33.1	94	31.6	1	4	338	0.00	29.689 
07:45	33.1	33.1	33.1	94	31.6	1	2	292	0.00	29.692 
07:50	33.1	33.1	33.1	94	31.6	1	3	292	0.00	29.692 
07:55	33.1	33.1	33.1	94	31.6	1	3	292	0.00	29.692 
08:00	33.1	33.1	33.1	94	31.6	1	4	315	0.00	29.704 
08:05	33.1	33.1	33.1	94	31.6	1	4	292	0.00	29.704 
08:10	33.1	33.1	33.1	93	31.3	1	3	292	0.00	29.704 
08:15	33.1	33.1	33.1	94	31.6	1	3	315	0.00	29.711 
08:20	33.1	33.1	33.1	94	31.6	0	2	0	0.00	29.711 
08:25	33.1	33.1	33.1	94	31.6	0	2	0	0.00	29.711 
08:30	33.1	33.1	33.1	94	31.6	0	2	0	0.00	29.720 
08:35	33.1	33.1	33.1	94	31.6	0	2	292	0.00	29.720 
08:40	33.1	33.1	33.1	93	31.3	0	3	292	0.00	29.720 
08:45	33.1	33.1	33.1	93	31.3	0	2	292	0.00	29.727 
08:50	33.1	33.1	33.1	93	31.3	0	2	315	0.00	29.727 
08:55	33.1	33.1	33.1	93	31.3	1	2	315	0.00	29.727 
09:00	33.1	33.1	33.1	93	31.3	1	3	315	0.00	29.733 
09:05	33.2	33.2	33.2	93	31.4	1	3	270	0.00	29.733 
09:10	33.2	33.2	33.2	93	31.4	1	5	315	0.00	29.733 
09:15	33.2	33.2	33.2	93	31.4	1	3	292	0.00	29.739 
09:20	33.2	33.2	33.2	93	31.4	2	5	315	0.00	29.739 
09:25	33.2	33.2	33.2	93	31.4	2	6	270	0.00	29.739 
09:30	33.4	33.4	33.4	92	31.3	1	4	338	0.00	29.743 
09:35	33.4	33.4	33.4	92	31.3	1	4	270	0.01	29.743 
09:40	33.5	33.5	33.5	92	31.4	2	5	315	0.00	29.743 
09:45	33.5	33.5	33.5	92	31.4	1	4	315	0.00	29.745 
09:50	33.5	33.5	33.5	91	31.2	1	3	315	0.00	29.745 
09:55	33.5	33.5	33.5	91	31.2	1	4	0	0.00	29.745 
10:00	33.7	33.7	33.7	91	31.4	1	4	0	0.01	29.753 
10:05	33.7	33.7	33.7	90	31.1	2	6	292	0.00	29.753 
10:10	33.8	33.8	33.8	90	31.2	1	3	338	0.00	29.753 
10:15	33.8	33.8	33.8	89	30.9	1	4	338	0.00	29.756 
10:20	34.1	34.1	34.1	89	31.2	1	3	315	0.01	29.756 
10:25	34.3	34.3	34.3	89	31.4	1	4	338	0.00	29.756 
10:30	34.3	34.3	34.3	89	31.4	1	4	292	0.00	29.760 
10:35	34.3	34.3	34.3	88	31.1	1	4	338	0.01	29.760 
10:40	34.3	34.3	34.3	88	31.1	2	4	292	0.00	29.760 
10:45	34.3	34.3	34.3	88	31.1	1	4	315	0.01	29.767 
10:50	34.3	34.3	34.3	88	31.1	2	5	292	0.00	29.767 
10:55	34.4	34.4	34.4	88	31.2	2	5	315	0.00	29.767 
11:00	34.6	34.6	34.6	88	31.4	2	4	338	0.01	29.768 
11:05	35.2	35.2	35.2	88	32.0	1	3	338	0.00	29.768 
11:10	35.3	35.3	35.3	88	32.1	1	3	315	0.01	29.768 
11:15	35.3	35.3	35.3	87	31.8	1	5	338	0.00	29.771 
11:20	35.2	35.2	35.2	86	31.4	2	5	315	0.01	29.771 
11:25	35.2	35.2	35.2	86	31.4	1	3	338	0.00	29.771 
11:30	35.2	35.2	35.2	85	31.2	1	3	292	0.00	29.781 
11:35	35.3	35.3	35.3	85	31.2	1	6	338	0.01	29.781 
11:40	35.3	35.3	35.3	85	31.2	1	7	338	0.00	29.781 
11:45	35.5	35.5	35.5	84	31.2	1	4	270	0.00	29.785 
11:50	35.5	35.5	35.5	84	31.2	1	4	338	0.00	29.785 
11:55	35.6	35.6	35.6	84	31.3	1	5	292	0.00	29.785 
12:00	35.8	35.8	35.8	84	31.4	1	4	0	0.01	29.793 
12:05	35.6	35.6	35.6	83	31.0	2	6	292	0.00	29.793 
12:10	35.6	35.6	35.6	83	31.0	1	4	292	0.00	29.793 
12:15	35.6	35.6	35.6	82	30.7	1	4	338	0.00	29.798 
12:20	35.6	35.6	35.6	83	31.0	1	6	338	0.00	29.798 
12:25	35.6	35.6	35.6	82	30.7	1	5	338	0.00	29.798 
12:30	35.6	35.6	35.6	83	31.0	0	2	0	0.01	29.800 
12:35	35.6	35.6	35.6	83	31.0	1	3	0	0.00	29.800 
12:40	35.6	35.6	35.6	83	31.0	1	4	0	0.00	29.800 
12:45	35.6	35.6	35.6	82	30.7	1	3	270	0.00	29.802 
12:50	35.8	35.8	35.8	82	30.9	1	4	338	0.00	29.802 
12:55	35.8	35.8	35.8	82	30.9	1	5	315	0.00	29.802 
13:00	35.8	35.8	35.8	82	30.9	2	6	0	0.00	29.807 
13:05	35.9	35.9	35.9	82	31.0	1	3	248	0.00	29.807 
13:10	36.0	36.0	36.0	82	31.0	1	3	338	0.00	29.807 
13:15	36.3	36.3	36.3	82	31.3	1	4	292	0.00	29.800 
13:20	36.6	36.6	36.6	82	31.6	1	3	292	0.00	29.800 
13:25	36.8	36.8	36.8	81	31.5	2	6	292	0.00	29.800 
13:30	36.8	36.8	36.8	80	31.2	1	6	338	0.00	29.801 
13:35	36.6	36.6	36.6	80	31.0	2	4	338	0.01	29.801 
13:40	36.8	36.8	36.8	80	31.2	1	4	338	0.00	29.801 
13:45	37.0	37.0	37.0	80	31.4	1	3	0	0.00	29.801 
13:50	37.3	37.3	37.3	80	31.7	1	3	315	0.00	29.801 
13:55	37.3	37.3	37.3	79	31.4	1	3	0	0.00	29.801 
14:00	37.5	37.5	37.5	79	31.6	1	5	0	0.00	29.804 
14:05	37.3	37.3	37.3	77	30.8	1	4	315	0.00	29.804 
14:10	37.3	37.3	37.3	77	30.8	1	3	315	0.00	29.804 
14:15	37.2	37.2	37.2	77	30.7	1	5	338	0.00	29.812 
14:20	37.0	37.0	37.0	77	30.5	2	5	315	0.00	29.812 
14:25	36.9	36.9	36.9	77	30.4	2	4	0	0.00	29.812 
14:30	36.9	36.9	36.9	77	30.4	1	4	338	0.00	29.814 
14:35	36.9	36.9	36.9	77	30.4	2	6	270	0.00	29.814 
14:40	36.9	36.9	36.9	78	30.7	1	3	338	0.00	29.814 
14:45	37.0	37.0	37.0	78	30.8	1	4	338	0.00	29.817 
14:50	37.0	37.0	37.0	78	30.8	1	3	338	0.00	29.817 
14:55	37.2	37.2	37.2	78	31.0	1	3	292	0.00	29.817 
15:00	37.2	37.2	37.2	78	31.0	1	3	0	0.00	29.822 
15:05	37.0	37.0	37.0	77	30.5	1	3	338	0.00	29.822 
15:10	37.0	37.0	37.0	78	30.8	1	3	338	0.00	29.822 
15:15	37.0	37.0	37.0	78	30.8	1	3	292	0.00	29.831 
15:20	37.2	37.2	37.2	79	31.3	1	4	270	0.00	29.831 
15:25	37.2	37.2	37.2	78	31.0	1	3	315	0.00	29.831 
15:30	37.2	37.2	37.2	78	31.0	1	4	338	0.00	29.832 
15:35	37.3	37.3	37.3	78	31.1	1	3	0	0.00	29.832 
15:40	37.5	37.5	37.5	77	31.0	1	4	270	0.00	29.832 
15:45	37.5	37.5	37.5	77	31.0	1	3	292	0.00	29.839 
15:50	37.3	37.3	37.3	77	30.8	1	3	292	0.00	29.839 
15:55	37.0	37.0	37.0	78	30.8	1	3	0	0.00	29.839 
16:00	36.8	36.8	36.8	78	30.6	1	4	338	0.00	29.846 
16:05	36.8	36.8	36.8	79	30.9	1	4	338	0.00	29.846 
16:10	36.8	36.8	36.8	79	30.9	1	5	338	0.00	29.846 
16:15	36.6	36.6	36.6	79	30.7	1	3	338	0.00	29.845 
16:20	36.6	36.6	36.6	79	30.7	1	3	338	0.00	29.845 
16:25	36.6	36.6	36.6	79	30.7	1	5	292	0.00	29.845 
16:30	36.5	36.5	36.5	79	30.6	1	3	338	0.00	29.852 
16:35	36.5	36.5	36.5	79	30.6	1	4	270	0.00	29.852 
16:40	36.5	36.5	36.5	79	30.6	1	4	270	0.00	29.852 
16:45	36.5	36.5	36.5	79	30.6	1	3	338	0.00	29.860 
16:50	36.3	36.3	36.3	79	30.4	1	3	292	0.00	29.860 
16:55	36.3	36.3	36.3	79	30.4	1	4	292	0.00	29.860 
17:00	36.3	36.3	36.3	79	30.4	0	2	292	0.00	29.867 
17:05	36.3	36.3	36.3	79	30.4	0	3	292	0.00	29.867 
17:10	36.3	36.3	36.3	79	30.4	1	3	292	0.00	29.867 
17:15	36.3	36.3	36.3	78	30.1	1	5	270	0.00	29.877 
17:20	36.3	36.3	36.3	78	30.1	0	2	270	0.00	29.877 
17:25	36.2	36.2	36.2	78	30.0	1	5	270	0.00	29.877 
17:30	36.2	36.2	36.2	78	30.0	0	2	338	0.00	29.880 
17:35	36.2	36.2	36.2	78	30.0	0	1	315	0.00	29.880 
17:40	36.2	36.2	36.2	78	30.0	0	2	315	0.00	29.880 
17:45	36.2	36.2	36.2	78	30.0	0	1	315	0.00	29.886 
17:50	36.0	36.0	36.0	78	29.8	0	1	315	0.00	29.886 
17:55	36.0	36.0	36.0	78	29.8	0	2	315	0.00	29.886 
18:00	36.0	36.0	36.0	79	30.1	0	1	315	0.00	29.893 
18:05	36.0	36.0	36.0	79	30.1	0	1	315	0.00	29.893 
18:10	36.0	36.0	36.0	79	30.1	0	1	315	0.00	29.893 
18:15	36.0	36.0	36.0	79	30.1	0	1	315	0.00	29.903 
18:20	35.9	35.9	35.9	79	30.0	0	1	315	0.00	29.903 
18:25	35.9	35.9	35.9	80	30.3	0	1	315	0.00	29.903 
18:30	35.9	35.9	35.9	80	30.3	0	1	315	0.00	29.909 
18:35	35.9	35.9	35.9	80	30.3	0	1	315	0.00	29.909 
18:40	35.8	35.8	35.8	80	30.2	0	3	315	0.00	29.909 
18:45	35.8	35.8	35.8	80	30.2	0	2	315	0.00	29.914 
18:50	35.8	35.8	35.8	80	30.2	0	1	315	0.00	29.914 
18:55	35.8	35.8	35.8	81	30.6	0	1	315	0.00	29.914 
19:00	35.8	35.8	35.8	81	30.6	0	1	315	0.00	29.921 
19:05	35.8	35.8	35.8	81	30.6	0	2	315	0.00	29.921 
19:10	35.6	35.6	35.6	81	30.4	0	1	315	0.00	29.921 
19:15	35.6	35.6	35.6	81	30.4	0	1	315	0.00	29.924 
19:20	35.6	35.6	35.6	81	30.4	0	0	---	0.00	29.924 
19:25	35.6	35.6	35.6	81	30.4	0	0	---	0.00	29.924 
19:30	35.6	35.6	35.6	81	30.4	0	1	315	0.00	29.928 
19:35	35.6	35.6	35.6	82	30.7	0	2	315	0.00	29.928 
19:40	35.6	35.6	35.6	82	30.7	0	1	315	0.00	29.928 
19:45	35.5	35.5	35.5	82	30.6	0	1	315	0.00	29.937 
19:50	35.5	35.5	35.5	83	30.9	0	1	315	0.00	29.937 
19:55	35.5	35.5	35.5	83	30.9	0	1	315	0.00	29.937 
20:00	35.3	35.3	35.3	83	30.7	0	1	315	0.00	29.940 
20:05	35.3	35.3	35.3	83	30.7	0	2	315	0.00	29.940 
20:10	35.3	35.3	35.3	83	30.7	0	3	270	0.00	29.940 
20:15	35.2	35.2	35.2	83	30.6	1	3	270	0.00	29.941 
20:20	35.0	35.0	35.0	84	30.7	0	1	270	0.00	29.941 
20:25	35.0	35.0	35.0	84	30.7	0	2	270	0.00	29.941 
20:30	34.9	34.9	34.9	85	30.9	0	2	270	0.00	29.942 
20:35	34.6	34.6	34.6	85	30.6	1	3	315	0.00	29.942 
20:40	34.4	34.4	34.4	86	30.7	1	4	315	0.00	29.942 
20:45	34.3	34.3	34.3	86	30.6	1	3	292	0.00	29.950 
20:50	34.1	34.1	34.1	86	30.4	0	2	292	0.00	29.950 
20:55	34.1	34.1	34.1	86	30.4	0	2	292	0.00	29.950 
21:00	34.1	34.1	34.1	87	30.6	1	3	292	0.00	29.954 
21:05	34.0	34.0	34.0	87	30.5	1	2	292	0.00	29.954 
21:10	34.0	34.0	34.0	87	30.5	0	2	292	0.00	29.954 
21:15	34.0	34.0	34.0	87	30.5	1	5	292	0.00	29.955 
21:20	34.0	34.0	34.0	87	30.5	0	2	270	0.00	29.955 
21:25	33.8	33.8	33.8	87	30.3	0	1	270	0.00	29.955 
21:30	33.8	33.8	33.8	87	30.3	0	2	270	0.00	29.957 
21:35	33.8	33.8	33.8	88	30.6	0	2	270	0.00	29.957 
21:40	33.7	33.7	33.7	88	30.5	0	2	270	0.00	29.957 
21:45	33.7	33.7	33.7	88	30.5	0	2	270	0.00	29.956 
21:50	33.5	33.5	33.5	88	30.3	0	2	270	0.00	29.956 
21:55	33.4	33.4	33.4	89	30.5	0	2	270	0.00	29.956 
22:00	33.4	33.4	33.4	89	30.5	0	3	270	0.00	29.961 
22:05	33.2	33.2	33.2	89	30.3	0	3	270	0.00	29.961 
22:10	33.1	33.1	33.1	89	30.2	1	3	315	0.00	29.961 
22:15	32.9	32.9	32.9	89	30.0	0	2	315	0.00	29.957 
22:20	32.9	32.9	32.9	90	30.3	0	1	315	0.00	29.957 
22:25	32.8	32.8	32.8	90	30.2	0	2	315	0.00	29.957 
22:30	32.8	32.8	32.8	90	30.2	0	2	315	0.00	29.957 
22:35	32.7	32.7	32.7	90	30.1	0	2	315	0.00	29.957 
22:40	32.7	32.7	32.7	90	30.1	0	2	315	0.00	29.957 
22:45	32.7	32.7	32.7	90	30.1	0	1	315	0.00	29.957 
22:50	32.5	32.5	32.5	91	30.2	0	1	315	0.00	29.957 
22:55	32.5	32.5	32.5	91	30.2	0	2	315	0.00	29.957 
23:00	32.5	32.5	32.5	91	30.2	0	1	315	0.00	29.957 
23:05	32.5	32.5	32.5	91	30.2	0	2	315	0.00	29.957 
23:10	32.5	32.5	32.5	91	30.2	0	1	315	0.00	29.957 
23:15	32.5	32.5	32.5	91	30.2	0	2	315	0.00	29.960 
23:20	32.4	32.4	32.4	91	30.1	0	1	315	0.00	29.960 
23:25	32.4	32.4	32.4	91	30.1	0	2	315	0.00	29.960 
23:30	32.4	32.4	32.4	92	30.3	0	2	292	0.00	29.959 
23:35	32.4	32.4	32.4	92	30.3	0	1	292	0.00	29.959 
23:40	32.4	32.4	32.4	92	30.3	0	1	292	0.00	29.959 
23:45	32.4	32.4	32.4	92	30.3	0	1	292	0.00	29.961 
23:50	32.4	32.4	32.4	92	30.3	0	2	292	0.00	29.961 
23:55	32.4	32.4	32.4	92	30.3	0	0	---	0.00	29.961 

CoCoRaHS
IN-AL-39
A2 Web Hosting
Creative Commons License
GoDaddy
search engine by freefind advanced

loaded 2018-11-17 23:34:40 • last modified 2010-11-18 10:43:29
Privacy PolicyDisclaimer
• wx.awcolley.com is powered by PmWiki v.2002016 •
• all content (unless otherwise noted) © 2018 A W Colley